»·PEaware :: HADAI KAJO-KVCV

HADAI :: KAJO-KVCV

FLIGHT INFORMATION

Flight Status: Arrived
Operator: Unknown
More flights by this operator :: More flights under this callsign
Pilot: Tamer M. (30101)
Aircraft: Diamond DA-62
(DA62)
More flights by this aircraft type
Origin: KAJO Corona Mun
United States
Destination: KVCV Socal Logistics
United States
More flights between these airports :: More routes between these airports
Route: PDZ V442 APLES
File this flight plan on PilotEdge
Remarks: ODP
Altitude:
(Current/Filed)
9,000ft
Speed:
(Current/Filed)
180kts
Departed: 26-Oct-20 12:47 PM
Arrived: 26-Oct-20 01:38 PM
Distance/Time
Traveled:
43nm/0:51
Distance/Time
To Go:
Arrived

Flight Plot

Page will automatically refresh every two minutes.


Map Options




Map Legend


Flown Route
Filed Route
Departure Airport
Arrival Airport
Navaid (VOR, NDB)
Fix

Horizontal Profiles

Position Reports

Time Latitude Longitude Heading Altitude Ground
Speed
26-Oct-20 12:29 33.896958 -117.597575 96 535ft 0kts
26-Oct-20 12:29 33.896958 -117.597575 96 535ft 0kts
26-Oct-20 12:31 33.896958 -117.597575 96 535ft 0kts
26-Oct-20 12:32 33.896958 -117.597575 96 535ft 0kts
26-Oct-20 12:32 33.896958 -117.597575 96 535ft 0kts
26-Oct-20 12:34 33.896958 -117.597575 96 535ft 0kts
26-Oct-20 12:34 33.896958 -117.597575 96 535ft 0kts
26-Oct-20 12:35 33.896958 -117.597575 96 535ft 0kts
26-Oct-20 12:36 33.896958 -117.597575 96 535ft 0kts
26-Oct-20 12:37 33.896958 -117.597575 96 535ft 0kts
26-Oct-20 12:38 33.896958 -117.597575 96 535ft 0kts
26-Oct-20 12:39 33.896958 -117.597575 96 535ft 0kts
26-Oct-20 12:40 33.896958 -117.597575 96 535ft 0kts
26-Oct-20 12:41 33.896958 -117.597575 96 535ft 0kts
26-Oct-20 12:42 33.896834 -117.597674 306 535ft 8kts
26-Oct-20 12:43 33.897273 -117.601091 268 529ft 17kts
26-Oct-20 12:44 33.897197 -117.607124 273 518ft 0kts
26-Oct-20 12:45 33.897197 -117.607124 273 518ft 0kts
26-Oct-20 12:46 33.897699 -117.601012 87 530ft 80kts
26-Oct-20 12:47 33.902866 -117.567693 58 1682ft 107kts
26-Oct-20 12:48 33.916542 -117.535426 64 3032ft 109kts
26-Oct-20 12:49 33.936842 -117.508464 42 4384ft 111kts
26-Oct-20 12:50 33.943262 -117.523217 203 5702ft 109kts
26-Oct-20 12:51 33.910092 -117.533822 251 5848ft 140kts
26-Oct-20 12:52 33.937359 -117.547048 42 5850ft 147kts
26-Oct-20 12:53 33.951936 -117.504182 125 5847ft 147kts
26-Oct-20 12:54 33.924117 -117.514782 243 6759ft 116kts
26-Oct-20 12:55 33.922575 -117.543370 350 8235ft 108kts
26-Oct-20 12:56 33.951422 -117.520036 47 8855ft 166kts
26-Oct-20 12:57 33.992044 -117.485786 23 8849ft 187kts
26-Oct-20 12:58 34.039087 -117.458148 26 8849ft 189kts
26-Oct-20 12:59 34.086460 -117.429646 25 8848ft 189kts
26-Oct-20 13:00 34.133598 -117.401288 26 8848ft 189kts
26-Oct-20 13:01 34.180659 -117.372727 26 8848ft 189kts
26-Oct-20 13:02 34.227757 -117.344186 26 8847ft 189kts
26-Oct-20 13:03 34.274657 -117.315846 26 8847ft 188kts
26-Oct-20 13:04 34.321592 -117.287447 26 8848ft 188kts
26-Oct-20 13:05 34.368497 -117.259054 26 8848ft 188kts
26-Oct-20 13:06 34.415449 -117.230590 26 8848ft 188kts
26-Oct-20 13:07 34.462185 -117.202181 26 8848ft 188kts
26-Oct-20 13:08 34.507780 -117.174271 27 8989ft 184kts
26-Oct-20 13:09 34.554048 -117.146891 18 8960ft 186kts
26-Oct-20 13:10 34.603072 -117.142951 357 8152ft 172kts
26-Oct-20 13:11 34.649738 -117.152061 344 7352ft 169kts
26-Oct-20 13:12 34.693026 -117.173746 331 6613ft 164kts
26-Oct-20 13:13 34.727539 -117.203225 318 6585ft 146kts
26-Oct-20 13:14 34.755105 -117.238783 307 6586ft 144kts
26-Oct-20 13:15 34.776460 -117.280221 296 6587ft 147kts
26-Oct-20 13:16 34.791256 -117.328426 283 5411ft 155kts
26-Oct-20 13:17 34.782872 -117.366149 210 4773ft 119kts
26-Oct-20 13:18 34.751971 -117.376073 186 4294ft 118kts
26-Oct-20 13:19 34.717536 -117.379190 185 4287ft 127kts
26-Oct-20 13:20 34.682141 -117.381971 185 4121ft 123kts
26-Oct-20 13:21 34.654025 -117.384480 188 3473ft 86kts
26-Oct-20 13:22 34.629738 -117.386642 182 3250ft 101kts
26-Oct-20 13:23 34.601933 -117.396987 236 4139ft 125kts
26-Oct-20 13:24 34.604161 -117.439637 288 5528ft 130kts
26-Oct-20 13:25 34.612981 -117.486389 282 5991ft 162kts
26-Oct-20 13:26 34.623131 -117.542084 282 5987ft 172kts
26-Oct-20 13:27 34.633096 -117.596394 282 5435ft 151kts
26-Oct-20 13:28 34.654961 -117.630839 16 4421ft 146kts
26-Oct-20 13:29 34.665783 -117.590348 98 3853ft 122kts
26-Oct-20 13:30 34.656349 -117.546606 108 3863ft 147kts
26-Oct-20 13:31 34.644620 -117.499151 108 3859ft 145kts
26-Oct-20 13:32 34.631012 -117.453705 112 3858ft 143kts
26-Oct-20 13:33 34.636363 -117.410098 45 3860ft 147kts
26-Oct-20 13:34 34.655077 -117.370373 113 3565ft 125kts
26-Oct-20 13:35 34.632583 -117.345749 147 3453ft 113kts
26-Oct-20 13:36 34.609620 -117.355973 221 3067ft 125kts
26-Oct-20 13:37 34.593977 -117.374357 227 2861ft 32kts
26-Oct-20 13:38 34.589688 -117.377615 133 2868ft 0kts
26-Oct-20 13:39 34.589015 -117.376669 139 2868ft 17kts
26-Oct-20 13:40 34.587225 -117.376311 225 2870ft 0kts

Navigation Log

Ident Type
Flight plan parsing failed, navigation log unavailable